createdAt,value
2022-11-18T00:01:09.832Z,3.23
2022-11-18T00:04:13.521Z,3.25
2022-11-18T00:07:17.288Z,3.24
2022-11-18T00:10:22.456Z,3.28
2022-11-18T00:13:43.298Z,3.19
2022-11-18T00:16:47.520Z,3.15
2022-11-18T00:19:51.411Z,3.17
2022-11-18T00:22:54.940Z,3.18
2022-11-18T00:26:04.500Z,3.17
2022-11-18T00:29:09.863Z,3.12
2022-11-18T00:32:13.424Z,3.06
2022-11-18T00:35:17.275Z,2.99
2022-11-18T00:38:20.824Z,2.97
2022-11-18T00:41:46.365Z,2.92
2022-11-18T00:44:49.032Z,2.90
2022-11-18T00:47:52.793Z,2.89
2022-11-18T00:50:59.021Z,2.87
2022-11-18T00:54:02.965Z,2.80
2022-11-18T00:57:08.042Z,2.78
2022-11-18T01:00:12.985Z,2.79
2022-11-18T01:03:16.856Z,2.76
2022-11-18T01:06:20.973Z,2.71
2022-11-18T01:09:24.666Z,2.74
2022-11-18T01:12:51.489Z,2.72
2022-11-18T01:15:59.844Z,2.70
2022-11-18T01:19:03.859Z,2.65
2022-11-18T01:22:07.680Z,2.64
2022-11-18T01:25:11.423Z,2.62
2022-11-18T01:28:23.179Z,2.58
2022-11-18T01:31:27.495Z,2.60
2022-11-18T01:34:31.333Z,2.61
2022-11-18T01:37:35.018Z,2.59
2022-11-18T01:40:39.592Z,2.63
2022-11-18T01:43:55.145Z,2.58
2022-11-18T01:46:58.656Z,2.54
2022-11-18T01:50:03.524Z,2.55
2022-11-18T01:53:15.984Z,2.57
2022-11-18T01:56:27.013Z,2.51
2022-11-18T01:59:38.504Z,2.50
2022-11-18T02:02:42.820Z,2.45
2022-11-18T02:05:50.600Z,2.44
2022-11-18T02:08:55.451Z,2.46
2022-11-18T02:11:59.196Z,2.42
2022-11-18T02:15:05.219Z,2.41
2022-11-18T02:18:20.575Z,2.43
2022-11-18T02:21:41.012Z,2.38
2022-11-18T02:25:01.905Z,2.42
2022-11-18T02:28:27.089Z,2.36
2022-11-18T02:31:42.907Z,2.37
2022-11-18T02:34:54.418Z,2.31
2022-11-18T02:38:04.631Z,2.23
2022-11-18T02:41:14.361Z,2.20
2022-11-18T02:44:22.936Z,2.16
2022-11-18T02:47:31.529Z,2.19
2022-11-18T02:50:39.623Z,2.13
2022-11-18T02:53:47.079Z,2.11
2022-11-18T02:56:53.713Z,2.05
2022-11-18T02:59:57.595Z,2.04
2022-11-18T03:03:25.912Z,2.02
2022-11-18T03:06:35.256Z,2.01
2022-11-18T03:09:43.493Z,2.01
2022-11-18T03:13:04.500Z,1.98
2022-11-18T03:16:15.451Z,1.96
2022-11-18T03:19:30.723Z,2.00
2022-11-18T03:22:43.666Z,2.00
2022-11-18T03:25:54.935Z,1.91
2022-11-18T03:29:06.285Z,1.88
2022-11-18T03:32:18.380Z,1.91
2022-11-18T03:35:28.272Z,1.85
2022-11-18T03:38:40.340Z,1.78
2022-11-18T03:41:50.635Z,1.78
2022-11-18T03:45:00.222Z,1.75
2022-11-18T03:48:12.442Z,1.74
2022-11-18T03:51:24.099Z,1.73
2022-11-18T03:54:34.576Z,1.67
2022-11-18T03:57:52.961Z,1.65
2022-11-18T04:01:09.379Z,1.78
2022-11-18T04:04:14.831Z,1.65
2022-11-18T04:07:28.122Z,1.64
2022-11-18T04:10:38.600Z,1.62
2022-11-18T04:13:42.481Z,1.61
2022-11-18T04:16:51.149Z,1.53
2022-11-18T04:19:55.399Z,1.56
2022-11-18T04:23:00.465Z,1.48
2022-11-18T04:26:04.032Z,1.49
2022-11-18T04:29:07.713Z,1.43
2022-11-18T04:32:11.341Z,1.52
2022-11-18T04:35:15.908Z,1.45
2022-11-18T04:38:22.201Z,1.50
2022-11-18T04:41:45.947Z,1.43
2022-11-18T04:44:49.540Z,1.43
2022-11-18T04:47:53.132Z,1.46
2022-11-18T04:50:58.756Z,1.46
2022-11-18T04:54:05.481Z,1.42
2022-11-18T04:57:09.544Z,1.54
2022-11-18T05:00:14.279Z,1.46
2022-11-18T05:03:18.035Z,1.50
2022-11-18T05:06:22.431Z,1.49
2022-11-18T05:09:31.835Z,1.54
2022-11-18T05:12:50.760Z,1.51
2022-11-18T05:15:54.316Z,1.50
2022-11-18T05:18:57.948Z,1.42
2022-11-18T05:22:01.964Z,1.45
2022-11-18T05:25:08.434Z,1.39
2022-11-18T05:28:12.097Z,1.35
2022-11-18T05:31:17.956Z,1.38
2022-11-18T05:34:21.788Z,1.38
2022-11-18T05:37:25.380Z,1.29
2022-11-18T05:40:30.411Z,1.30
2022-11-18T05:43:34.740Z,1.29
2022-11-18T05:46:47.319Z,1.27
2022-11-18T05:49:50.941Z,1.26
2022-11-18T05:52:54.595Z,1.28
2022-11-18T05:56:07.306Z,1.16
2022-11-18T05:59:10.896Z,1.22
2022-11-18T06:02:35.507Z,1.14
2022-11-18T06:05:42.818Z,1.19
2022-11-18T06:08:52.556Z,1.14
2022-11-18T06:12:01.287Z,1.15
2022-11-18T06:15:12.378Z,1.18
2022-11-18T06:18:24.888Z,1.15
2022-11-18T06:21:29.179Z,1.16
2022-11-18T06:24:33.526Z,1.16
2022-11-18T06:27:38.579Z,1.14
2022-11-18T06:30:43.153Z,1.17
2022-11-18T06:33:46.819Z,1.17
2022-11-18T06:36:50.468Z,1.22
2022-11-18T06:39:54.307Z,1.26
2022-11-18T06:43:17.039Z,1.20
2022-11-18T06:46:37.643Z,1.20
2022-11-18T06:49:41.567Z,1.26
2022-11-18T06:52:45.322Z,1.24
2022-11-18T06:55:49.136Z,1.22
2022-11-18T06:58:59.698Z,1.24
2022-11-18T07:02:03.376Z,1.23
2022-11-18T07:05:08.398Z,1.23
2022-11-18T07:08:12.422Z,1.25
2022-11-18T07:11:18.987Z,1.22
2022-11-18T07:14:24.131Z,1.26
2022-11-18T07:17:28.227Z,1.25
2022-11-18T07:20:31.968Z,1.16
2022-11-18T07:23:36.644Z,1.16
2022-11-18T07:26:40.431Z,1.15
2022-11-18T07:29:45.755Z,1.14
2022-11-18T07:32:49.608Z,1.20
2022-11-18T07:35:53.372Z,1.11
2022-11-18T07:39:00.405Z,1.11
2022-11-18T07:42:04.160Z,1.19
2022-11-18T07:45:11.899Z,1.11
2022-11-18T07:48:15.559Z,1.13
2022-11-18T07:51:22.505Z,1.18
2022-11-18T07:54:26.300Z,1.20
2022-11-18T07:57:30.178Z,1.15
2022-11-18T08:00:35.156Z,1.16
2022-11-18T08:03:40.668Z,1.20
2022-11-18T08:06:44.791Z,1.15
2022-11-18T08:09:49.752Z,1.14
2022-11-18T08:12:53.485Z,1.08
2022-11-18T08:15:59.012Z,1.09
2022-11-18T08:19:03.047Z,1.05
2022-11-18T08:22:06.747Z,1.05
2022-11-18T08:25:11.009Z,0.99
2022-11-18T08:28:15.784Z,1.09
2022-11-18T08:31:24.503Z,1.10
2022-11-18T08:34:28.260Z,0.97
2022-11-18T08:37:31.896Z,0.96
2022-11-18T08:40:36.004Z,0.97
2022-11-18T08:43:39.639Z,0.89
2022-11-18T08:46:46.229Z,0.93
2022-11-18T08:49:49.929Z,0.88
2022-11-18T08:52:53.706Z,0.84
2022-11-18T08:55:58.361Z,0.85
2022-11-18T08:59:02.180Z,0.88
2022-11-18T09:02:07.550Z,0.76
2022-11-18T09:05:11.261Z,0.70
2022-11-18T09:08:15.751Z,0.70
2022-11-18T09:11:22.220Z,0.80
2022-11-18T09:15:12.296Z,0.79
2022-11-18T09:17:52.346Z,0.80
2022-11-18T09:20:57.416Z,0.70
2022-11-18T09:24:05.932Z,0.78
2022-11-18T09:27:16.394Z,0.78
2022-11-18T09:30:21.316Z,0.82
2022-11-18T09:33:26.508Z,0.75
2022-11-18T09:36:30.706Z,0.80
2022-11-18T09:39:37.610Z,0.71
2022-11-18T09:43:01.888Z,0.76
2022-11-18T09:46:22.048Z,0.71
2022-11-18T09:49:31.905Z,0.72
2022-11-18T09:52:46.119Z,0.73
2022-11-18T09:55:53.413Z,0.76
2022-11-18T09:58:58.092Z,0.79
2022-11-18T10:02:31.424Z,0.81
2022-11-18T10:05:51.130Z,0.90
2022-11-18T10:09:15.980Z,0.87
2022-11-18T10:12:34.520Z,0.73
2022-11-18T10:15:53.332Z,0.89
2022-11-18T10:19:08.048Z,0.80
2022-11-18T10:22:27.553Z,0.89
2022-11-18T10:25:31.235Z,0.87
2022-11-18T10:28:35.255Z,0.95
2022-11-18T10:31:40.772Z,0.94
2022-11-18T10:34:51.719Z,0.95
2022-11-18T10:38:08.657Z,0.99
2022-11-18T10:41:16.848Z,0.98
2022-11-18T10:44:34.496Z,0.97
2022-11-18T10:47:38.169Z,1.01
2022-11-18T10:50:47.191Z,0.92
2022-11-18T10:54:08.146Z,0.96
2022-11-18T10:57:20.070Z,0.92
2022-11-18T11:00:47.344Z,1.07
2022-11-18T11:04:03.363Z,1.07
2022-11-18T11:07:28.908Z,1.02
2022-11-18T11:10:37.182Z,0.93
2022-11-18T11:13:46.556Z,1.00
2022-11-18T11:17:04.151Z,0.96
2022-11-18T11:20:19.539Z,1.03
2022-11-18T11:23:27.484Z,0.99
2022-11-18T11:30:21.148Z,0.87
2022-11-18T11:33:39.661Z,0.98
2022-11-18T11:36:55.277Z,0.98
2022-11-18T11:40:23.784Z,0.99
2022-11-18T11:43:43.696Z,1.01
2022-11-18T11:47:28.178Z,0.95
2022-11-18T11:51:04.030Z,0.98
2022-11-18T11:54:40.602Z,1.06
2022-11-18T11:58:06.898Z,0.98
2022-11-18T12:01:21.503Z,0.84
2022-11-18T12:04:40.662Z,0.87
2022-11-18T12:07:51.937Z,0.82
2022-11-18T12:11:05.202Z,0.80
2022-11-18T12:14:22.727Z,0.85
2022-11-18T12:17:35.130Z,0.83
2022-11-18T12:20:44.863Z,0.81
2022-11-18T12:24:31.257Z,0.74
2022-11-18T12:28:01.115Z,0.70
2022-11-18T12:31:36.405Z,0.72
2022-11-18T12:34:43.622Z,0.71
2022-11-18T12:38:01.787Z,0.72
2022-11-18T12:41:45.439Z,0.68
2022-11-18T12:44:50.491Z,0.85
2022-11-18T12:48:00.417Z,0.70
2022-11-18T12:51:49.729Z,0.53
2022-11-18T12:54:54.117Z,0.57
2022-11-18T12:57:57.870Z,0.66
2022-11-18T13:01:11.635Z,0.73
2022-11-18T13:04:20.055Z,0.78
2022-11-18T13:07:44.499Z,0.78
2022-11-18T13:11:14.185Z,0.76
2022-11-18T13:14:39.063Z,0.57
2022-11-18T13:17:54.728Z,0.59
2022-11-18T13:21:20.883Z,0.57
2022-11-18T13:24:24.995Z,0.63
2022-11-18T13:27:46.872Z,0.71
2022-11-18T13:31:01.149Z,0.66
2022-11-18T13:34:18.057Z,0.68
2022-11-18T13:37:25.355Z,0.65
2022-11-18T13:40:39.195Z,0.65
2022-11-18T13:43:42.769Z,0.68
2022-11-18T13:46:49.583Z,0.63
2022-11-18T13:50:05.054Z,0.40
2022-11-18T13:53:27.586Z,0.43
2022-11-18T13:56:35.346Z,0.53
2022-11-18T13:59:42.859Z,0.39
2022-11-18T14:02:48.334Z,0.40
2022-11-18T14:05:55.359Z,0.51
2022-11-18T14:09:19.734Z,0.42
2022-11-18T14:12:29.048Z,0.48
2022-11-18T14:15:43.607Z,0.38
2022-11-18T14:18:50.045Z,0.45
2022-11-18T14:21:53.721Z,0.36
2022-11-18T14:25:00.854Z,0.34
2022-11-18T14:28:22.006Z,0.33
2022-11-18T14:31:28.710Z,0.36
2022-11-18T14:34:32.308Z,0.32
2022-11-18T14:37:36.038Z,0.32
2022-11-18T14:40:39.549Z,0.28
2022-11-18T14:43:46.201Z,0.25
2022-11-18T14:46:53.631Z,0.26
2022-11-18T14:49:57.445Z,0.25
2022-11-18T14:53:01.010Z,0.27
2022-11-18T14:56:04.705Z,0.26
2022-11-18T14:59:12.925Z,0.26
2022-11-18T15:02:18.885Z,0.20
2022-11-18T15:05:22.501Z,0.32
2022-11-18T15:08:26.051Z,0.23
2022-11-18T15:11:29.581Z,0.24
2022-11-18T15:14:35.723Z,0.20
2022-11-18T15:17:39.305Z,0.21
2022-11-18T15:20:42.896Z,0.21
2022-11-18T15:23:46.862Z,0.16
2022-11-18T15:26:50.706Z,0.14
2022-11-18T15:30:01.469Z,0.12
2022-11-18T15:33:05.414Z,0.03
2022-11-18T15:36:15.465Z,0.02
2022-11-18T15:39:19.316Z,0.05
2022-11-18T15:42:23.610Z,0.06
2022-11-18T15:45:30.028Z,0.11
2022-11-18T15:48:33.622Z,0.07
2022-11-18T15:51:37.336Z,0.19
2022-11-18T15:54:41.053Z,0.15
2022-11-18T15:57:44.626Z,0.12
2022-11-18T16:00:49.583Z,0.13
2022-11-18T16:03:53.640Z,0.15
2022-11-18T16:06:59.997Z,0.18
2022-11-18T16:10:17.540Z,0.23
2022-11-18T16:13:22.767Z,0.24
2022-11-18T16:16:30.246Z,0.25
2022-11-18T16:19:33.861Z,0.21
2022-11-18T16:22:37.431Z,0.36
2022-11-18T16:25:46.339Z,0.26
2022-11-18T16:28:50.253Z,0.29
2022-11-18T16:31:55.276Z,0.24
2022-11-18T16:35:01.380Z,0.27
2022-11-18T16:38:08.766Z,0.24
2022-11-18T16:41:26.230Z,0.20
2022-11-18T16:44:29.820Z,0.22
2022-11-18T16:47:34.803Z,0.24
2022-11-18T16:50:38.482Z,0.29
2022-11-18T16:53:42.118Z,0.23
2022-11-18T16:56:46.379Z,0.24
2022-11-18T16:59:50.126Z,0.25
2022-11-18T17:02:55.539Z,0.24
2022-11-18T17:06:21.138Z,0.29
2022-11-18T17:09:32.226Z,0.33
2022-11-18T17:12:35.772Z,0.32
2022-11-18T17:15:54.386Z,0.25
2022-11-18T17:19:13.144Z,0.19
2022-11-18T17:22:16.784Z,0.24
2022-11-18T17:25:25.845Z,0.27
2022-11-18T17:28:30.578Z,0.28
2022-11-18T17:31:35.441Z,0.27
2022-11-18T17:34:40.529Z,0.25
2022-11-18T17:37:46.757Z,0.29
2022-11-18T17:40:55.915Z,0.27
2022-11-18T17:43:59.853Z,0.26
2022-11-18T17:47:06.805Z,0.23
2022-11-18T17:50:12.328Z,0.30
2022-11-18T17:53:17.187Z,0.30
2022-11-18T17:56:22.473Z,0.26
2022-11-18T17:59:26.275Z,0.29
2022-11-18T18:02:30.002Z,0.23
2022-11-18T18:05:35.041Z,0.16
2022-11-18T18:08:39.650Z,0.13
2022-11-18T18:11:43.249Z,0.15
2022-11-18T18:14:46.002Z,0.11
2022-11-18T18:17:49.863Z,0.05
2022-11-18T18:20:54.978Z,0.05
2022-11-18T18:23:59.687Z,-0.06
2022-11-18T18:27:03.323Z,0.00
2022-11-18T18:30:08.410Z,-0.07
2022-11-18T18:33:12.086Z,-0.16
2022-11-18T18:36:19.565Z,-0.20
2022-11-18T18:39:23.325Z,-0.29
2022-11-18T18:42:26.995Z,-0.37
2022-11-18T18:45:48.905Z,-0.45
2022-11-18T18:48:52.903Z,-0.43
2022-11-18T18:51:57.851Z,-0.55
2022-11-18T18:55:01.397Z,-0.58
2022-11-18T18:58:05.110Z,-0.63
2022-11-18T19:01:11.163Z,-0.62
2022-11-18T19:04:16.712Z,-0.77
2022-11-18T19:07:22.796Z,-0.80
2022-11-18T19:10:27.021Z,-0.88
2022-11-18T19:13:29.578Z,-0.90
2022-11-18T19:16:33.687Z,-0.96
2022-11-18T19:19:54.597Z,-1.03
2022-11-18T19:26:25.294Z,-1.05
2022-11-18T19:29:28.866Z,-1.13
2022-11-18T19:32:32.756Z,-1.18
2022-11-18T19:35:38.084Z,-1.26
2022-11-18T19:38:43.455Z,-1.28
2022-11-18T19:41:47.243Z,-1.32
2022-11-18T19:44:51.309Z,-1.29
2022-11-18T19:47:55.167Z,-1.41
2022-11-18T19:51:11.619Z,-1.45
2022-11-18T19:54:16.825Z,-1.51
2022-11-18T19:57:20.950Z,-1.57
2022-11-18T20:00:24.694Z,-1.59
2022-11-18T20:03:29.926Z,-1.62
2022-11-18T20:06:36.402Z,-1.66
2022-11-18T20:09:41.829Z,-1.72
2022-11-18T20:12:45.365Z,-1.74
2022-11-18T20:15:49.116Z,-1.73
2022-11-18T20:18:55.937Z,-1.78
2022-11-18T20:21:59.747Z,-1.74
2022-11-18T20:25:05.223Z,-1.78
2022-11-18T20:28:12.324Z,-1.79
2022-11-18T20:31:21.038Z,-1.87
2022-11-18T20:34:24.911Z,-1.85
2022-11-18T20:37:29.434Z,-1.88
2022-11-18T20:40:34.684Z,-1.92
2022-11-18T20:43:40.713Z,-1.92
2022-11-18T20:46:44.474Z,-1.91
2022-11-18T20:49:48.819Z,-1.94
2022-11-18T20:52:53.579Z,-1.94
2022-11-18T20:55:59.259Z,-1.96
2022-11-18T20:59:03.250Z,-1.99
2022-11-18T21:02:06.975Z,-1.98
2022-11-18T21:05:11.021Z,-1.97
2022-11-18T21:08:15.663Z,-1.96
2022-11-18T21:11:20.717Z,-2.01
2022-11-18T21:14:25.924Z,-1.79
2022-11-18T21:17:29.911Z,-1.97
2022-11-18T21:20:51.534Z,-1.95
2022-11-18T21:23:56.603Z,-2.04
2022-11-18T21:27:03.859Z,-2.04
2022-11-18T21:30:09.429Z,-2.08
2022-11-18T21:33:14.594Z,-2.10
2022-11-18T21:36:19.983Z,-2.09
2022-11-18T21:39:24.912Z,-2.07
2022-11-18T21:42:30.110Z,-2.07
2022-11-18T21:45:45.868Z,-2.13
2022-11-18T21:49:06.775Z,-2.14
2022-11-18T21:52:10.609Z,-2.19
2022-11-18T21:55:14.480Z,-2.25
2022-11-18T21:58:20.093Z,-2.23
2022-11-18T22:01:25.902Z,-2.31
2022-11-18T22:04:47.160Z,-2.31
2022-11-18T22:07:50.915Z,-2.27
2022-11-18T22:10:54.522Z,-2.31
2022-11-18T22:13:59.824Z,-2.35
2022-11-18T22:17:03.668Z,-2.38
2022-11-18T22:20:09.801Z,-2.39
2022-11-18T22:23:14.566Z,-2.39
2022-11-18T22:26:21.077Z,-2.47
2022-11-18T22:29:26.748Z,-2.48
2022-11-18T22:32:30.411Z,-2.54
2022-11-18T22:35:33.970Z,-2.54
2022-11-18T22:38:38.152Z,-2.54
2022-11-18T22:42:01.821Z,-2.50
2022-11-18T22:45:09.044Z,-2.58
2022-11-18T22:48:13.439Z,-2.62
2022-11-18T22:51:17.213Z,-2.65
2022-11-18T22:54:38.379Z,-2.62
2022-11-18T22:57:44.234Z,-2.69
2022-11-18T23:00:49.355Z,-2.66
2022-11-18T23:03:53.664Z,-2.64
2022-11-18T23:06:57.388Z,-2.71
2022-11-18T23:10:02.383Z,-2.73
2022-11-18T23:13:23.166Z,-2.74
2022-11-18T23:16:32.914Z,-2.75
2022-11-18T23:19:41.914Z,-2.79
2022-11-18T23:22:45.792Z,-2.78
2022-11-18T23:25:49.383Z,-2.79
2022-11-18T23:28:54.021Z,-2.83
2022-11-18T23:31:58.970Z,-2.87
2022-11-18T23:35:02.647Z,-2.84
2022-11-18T23:38:06.254Z,-2.85
2022-11-18T23:41:12.743Z,-2.94
2022-11-18T23:44:16.358Z,-2.89
2022-11-18T23:47:21.439Z,-2.90
2022-11-18T23:50:25.049Z,-2.95
2022-11-18T23:53:30.297Z,-2.96
2022-11-18T23:56:37.806Z,-2.98
2022-11-18T23:59:42.165Z,-3.06
